Time;durP1;ratioP1;P1;durP2;ratioP2;P2;SDS_P1;SDS_P2;PMS_P1;PMS_P2;Temp;Humidity;BMP_temperature;BMP_pressure;BME280_temperature;BME280_humidity;BME280_pressure;Samples;Min_cycle;Max_cycle;Signal;HPM_P1;HPM_P2
2023/04/09 00:01:08;;;;;;;158.85;68.68;;;;;;;-144.73;100.00;54393.34;5051709;28;20031;-69
2023/04/09 00:03:34;;;;;;;169.65;68.65;;;;;;;-144.73;100.00;54440.53;5045136;28;20044;-70
2023/04/09 00:06:00;;;;;;;176.18;72.85;;;;;;;-144.73;100.00;54391.28;5051779;28;20040;-70
2023/04/09 00:08:25;;;;;;;175.45;69.80;;;;;;;-144.73;100.00;54415.91;5057468;28;20047;-70
2023/04/09 00:10:52;;;;;;;168.23;67.22;;;;;;;-144.73;100.00;54407.69;5068707;28;20065;-70
2023/04/09 00:13:17;;;;;;;167.30;66.47;;;;;;;-144.73;100.00;54383.06;5059195;28;20111;-70
2023/04/09 00:15:43;;;;;;;178.20;69.35;;;;;;;-144.73;100.00;54407.69;5068879;28;20123;-70
2023/04/09 00:18:09;;;;;;;179.27;72.25;;;;;;;-144.73;100.00;54374.84;5051936;28;20075;-71
2023/04/09 00:20:34;;;;;;;185.60;72.32;;;;;;;-144.73;100.00;54397.44;5051471;28;20052;-71
2023/04/09 00:23:00;;;;;;;194.00;72.85;;;;;;;-144.73;100.00;54424.13;5068351;28;20033;-71
2023/04/09 00:25:25;;;;;;;193.95;72.70;;;;;;;-144.73;100.00;54387.19;5044728;28;20035;-71
2023/04/09 00:27:51;;;;;;;203.02;73.82;;;;;;;-144.73;100.00;54428.22;5050353;28;20119;-71
2023/04/09 00:30:16;;;;;;;206.40;71.93;;;;;;;-144.73;100.00;54436.44;5051233;28;20036;-71
2023/04/09 00:32:41;;;;;;;212.13;73.90;;;;;;;-144.73;100.00;54424.13;5044506;28;20040;-71
2023/04/09 00:35:07;;;;;;;198.02;72.68;;;;;;;-144.73;100.00;54417.97;5075409;28;20474;-71
2023/04/09 00:37:33;;;;;;;222.70;78.35;;;;;;;-144.73;100.00;54420.00;5068328;28;20046;-72
2023/04/09 00:40:03;;;;;;;190.25;71.43;;;;;;;-144.73;100.00;54383.06;5051099;28;20096;-72
2023/04/09 00:42:32;;;;;;;200.18;71.47;;;;;;;-144.73;100.00;54407.69;5051003;28;20099;-72
2023/04/09 00:44:58;;;;;;;207.65;72.32;;;;;;;-144.73;100.00;54358.44;5068677;28;20086;-72
2023/04/09 00:47:24;;;;;;;212.68;76.03;;;;;;;-144.73;100.00;54409.75;5055002;28;20021;-72
2023/04/09 00:49:50;;;;;;;189.20;69.03;;;;;;;-144.73;100.00;54424.13;5051026;28;20040;-72
2023/04/09 00:52:15;;;;;;;185.52;67.40;;;;;;;-144.73;100.00;54411.81;5051213;28;20029;-72
2023/04/09 00:54:41;;;;;;;175.05;65.00;;;;;;;-144.73;100.00;54411.81;5049670;28;20029;-72
2023/04/09 00:57:06;;;;;;;163.63;61.80;;;;;;;-144.73;100.00;54411.81;5053482;28;20039;-72
2023/04/09 00:59:31;;;;;;;165.73;63.80;;;;;;;-144.73;100.00;54378.97;5053990;28;20040;-72
2023/04/09 01:01:57;;;;;;;176.60;69.10;;;;;;;-144.73;100.00;54426.16;5054974;28;20028;-71
2023/04/09 01:04:23;;;;;;;180.90;68.00;;;;;;;-144.73;100.00;54413.84;5055850;28;20032;-72
2023/04/09 01:06:52;;;;;;;166.57;64.53;;;;;;;-144.73;100.00;54411.81;5077586;28;20036;-72
2023/04/09 01:09:29;;;;;;;158.98;61.70;;;;;;;-144.73;100.00;54424.13;5071321;28;20471;-70
2023/04/09 01:12:32;;;;;;;164.90;63.13;;;;;;;-144.73;100.00;54383.06;5072336;28;20029;-70
2023/04/09 01:15:06;;;;;;;175.75;65.82;;;;;;;-144.73;100.00;54415.91;5077450;28;20047;-71
2023/04/09 01:17:49;;;;;;;161.00;59.45;;;;;;;-144.73;100.00;54424.13;5071722;28;20035;-71
2023/04/09 01:20:27;;;;;;;193.88;71.88;;;;;;;-144.73;100.00;54391.28;5053779;28;20029;-70
2023/04/09 01:23:28;;;;;;;221.40;77.57;;;;;;;-144.73;100.00;54395.38;5054467;28;20063;-70
2023/04/09 01:26:13;;;;;;;215.57;73.25;;;;;;;-144.73;100.00;54383.06;5059417;28;20486;-70
2023/04/09 01:28:43;;;;;;;239.73;84.68;;;;;;;-144.73;100.00;54391.28;5018451;28;20423;-73
2023/04/09 01:31:14;;;;;;;227.10;76.68;;;;;;;-144.73;100.00;54420.00;5054272;28;20028;-70
2023/04/09 01:33:43;;;;;;;244.10;84.93;;;;;;;-144.73;100.00;54424.13;5054016;28;20036;-71
2023/04/09 01:36:10;;;;;;;237.32;82.43;;;;;;;-144.73;100.00;54409.75;5054328;28;20378;-71
2023/04/09 01:38:40;;;;;;;205.18;73.20;;;;;;;-144.73;100.00;54391.28;5071090;28;20033;-71
2023/04/09 01:41:07;;;;;;;224.07;79.32;;;;;;;-144.73;100.00;54391.28;5054155;28;20025;-71
2023/04/09 01:43:33;;;;;;;202.35;75.43;;;;;;;-144.73;100.00;54399.50;5053637;28;20028;-71
2023/04/09 01:46:01;;;;;;;261.00;84.32;;;;;;;-144.73;100.00;54395.38;5073239;28;20383;-72
2023/04/09 01:48:28;;;;;;;235.13;77.20;;;;;;;-144.73;100.00;54366.66;5053295;28;20025;-71
2023/04/09 01:50:54;;;;;;;258.60;84.30;;;;;;;-144.73;100.00;54424.13;5079056;28;20028;-71
2023/04/09 01:53:20;;;;;;;243.55;79.90;;;;;;;-144.73;100.00;54407.69;5070388;28;20135;-71
2023/04/09 01:55:46;;;;;;;232.40;78.70;;;;;;;-144.73;100.00;54399.50;5077266;28;20128;-71
2023/04/09 01:58:12;;;;;;;251.38;85.07;;;;;;;-144.73;100.00;54420.00;5053780;28;20047;-72
2023/04/09 02:00:41;;;;;;;213.65;73.72;;;;;;;-144.73;100.00;54399.50;5054079;28;20055;-71
2023/04/09 02:03:15;;;;;;;260.27;81.60;;;;;;;-144.73;100.00;54411.81;5053092;28;20469;-71
2023/04/09 02:05:45;;;;;;;207.98;73.03;;;;;;;-144.73;100.00;54395.38;5048361;28;20035;-71
2023/04/09 02:08:15;;;;;;;227.23;72.90;;;;;;;-144.73;100.00;54409.75;5053091;28;20045;-71
2023/04/09 02:10:52;;;;;;;214.18;74.20;;;;;;;-144.73;100.00;54424.13;5058957;28;20052;-71
2023/04/09 02:13:18;;;;;;;208.43;72.40;;;;;;;-144.73;100.00;54378.97;5060444;28;20041;-71
2023/04/09 02:15:45;;;;;;;212.95;69.93;;;;;;;-144.73;100.00;54407.69;5065527;28;20033;-71
2023/04/09 02:18:28;;;;;;;202.52;69.22;;;;;;;-144.73;100.00;54354.34;5058651;28;20507;-71
2023/04/09 02:20:54;;;;;;;252.70;79.78;;;;;;;-144.73;100.00;54422.06;5076923;28;20028;-71
2023/04/09 02:23:20;;;;;;;251.23;71.65;;;;;;;-144.73;100.00;54415.91;5051912;28;20036;-71
2023/04/09 02:25:45;;;;;;;192.82;69.80;;;;;;;-144.73;100.00;54407.69;5052700;28;20103;-71
2023/04/09 02:28:11;;;;;;;231.95;78.50;;;;;;;-144.73;100.00;54432.31;5076635;28;20123;-71
2023/04/09 02:30:36;;;;;;;178.55;65.30;;;;;;;-144.73;100.00;54440.53;5077641;28;20021;-71
2023/04/09 02:33:01;;;;;;;195.88;69.78;;;;;;;-144.73;100.00;54395.38;5068483;28;20043;-71
2023/04/09 02:35:27;;;;;;;218.85;73.10;;;;;;;-144.73;100.00;54411.81;5057769;28;20094;-71
2023/04/09 02:37:52;;;;;;;234.68;75.43;;;;;;;-144.73;100.00;54391.28;5052497;28;20036;-71
2023/04/09 02:40:18;;;;;;;193.30;66.93;;;;;;;-144.73;100.00;54420.00;5073179;28;20028;-71
2023/04/09 02:42:43;;;;;;;229.43;73.38;;;;;;;-144.73;100.00;54420.00;5075425;28;20056;-71
2023/04/09 02:45:09;;;;;;;242.23;75.07;;;;;;;-144.73;100.00;54407.69;5054821;28;20032;-71
2023/04/09 02:47:34;;;;;;;213.73;72.50;;;;;;;-144.73;100.00;54389.22;5074381;28;20020;-71
2023/04/09 02:49:59;;;;;;;253.48;79.72;;;;;;;-144.73;100.00;54420.00;5057028;28;20080;-71
2023/04/09 02:52:25;;;;;;;254.05;78.63;;;;;;;-144.73;100.00;54436.44;5058765;28;20025;-71
2023/04/09 02:54:51;;;;;;;265.55;76.75;;;;;;;-144.73;100.00;54383.06;5072979;28;20027;-71
2023/04/09 02:57:17;;;;;;;269.63;82.13;;;;;;;-144.73;100.00;54436.44;5052321;28;20439;-71
2023/04/09 02:59:43;;;;;;;255.70;79.95;;;;;;;-144.73;100.00;54434.38;5052958;28;20044;-71
2023/04/09 03:02:08;;;;;;;259.30;76.93;;;;;;;-144.73;100.00;54411.81;5052898;28;20095;-71
2023/04/09 03:04:33;;;;;;;254.10;75.78;;;;;;;-144.73;100.00;54422.06;5052237;28;20108;-71
2023/04/09 03:06:59;;;;;;;269.02;80.95;;;;;;;-144.73;100.00;54446.69;5045687;28;20048;-71
2023/04/09 03:09:24;;;;;;;254.80;80.25;;;;;;;-144.73;100.00;54428.22;5045053;28;20036;-71
2023/04/09 03:11:49;;;;;;;261.60;83.22;;;;;;;-144.73;100.00;54387.19;5053064;28;20036;-71
2023/04/09 03:14:15;;;;;;;264.77;78.07;;;;;;;-144.73;100.00;54420.00;5049563;28;20036;-71
2023/04/09 03:16:40;;;;;;;279.70;83.43;;;;;;;-144.73;100.00;54432.31;5069674;28;20016;-71
2023/04/09 03:19:05;;;;;;;287.80;83.78;;;;;;;-144.73;100.00;54426.16;5044910;28;20373;-71
2023/04/09 03:21:31;;;;;;;232.23;76.63;;;;;;;-144.73;100.00;54420.00;5064395;28;20099;-71
2023/04/09 03:23:57;;;;;;;269.48;82.20;;;;;;;-144.73;100.00;54387.19;5043422;28;20455;-71
2023/04/09 03:26:22;;;;;;;229.68;74.63;;;;;;;-144.73;100.00;54440.53;5048460;28;20020;-71
2023/04/09 03:28:48;;;;;;;242.02;77.20;;;;;;;-144.73;100.00;54432.31;5035552;28;20029;-71
2023/04/09 03:31:13;;;;;;;222.85;76.65;;;;;;;-144.73;100.00;54387.19;5051499;28;20035;-71
2023/04/09 03:33:39;;;;;;;229.85;76.00;;;;;;;-144.73;100.00;54399.50;5041626;28;20029;-72
2023/04/09 03:36:04;;;;;;;226.85;76.25;;;;;;;-144.73;100.00;54434.38;5044478;28;20082;-71
2023/04/09 03:38:29;;;;;;;229.80;75.50;;;;;;;-144.73;100.00;54420.00;5068512;28;20051;-71
2023/04/09 03:40:55;;;;;;;215.27;74.30;;;;;;;-144.73;100.00;54450.81;5051794;28;20024;-72
2023/04/09 03:43:20;;;;;;;214.73;74.50;;;;;;;-144.73;100.00;54420.00;5051040;28;20125;-71
2023/04/09 03:45:46;;;;;;;219.70;75.00;;;;;;;-144.73;100.00;54428.22;5052060;28;20028;-71
2023/04/09 03:48:11;;;;;;;213.85;73.22;;;;;;;-144.73;100.00;54432.31;5050248;28;20025;-72
2023/04/09 03:50:38;;;;;;;213.38;71.80;;;;;;;-144.73;100.00;54448.75;5050606;28;20039;-71
2023/04/09 03:53:04;;;;;;;223.05;74.53;;;;;;;-144.73;100.00;54411.81;5055466;28;20035;-71
2023/04/09 03:55:29;;;;;;;214.98;71.15;;;;;;;-144.73;100.00;54440.53;5051771;28;20074;-72
2023/04/09 03:57:54;;;;;;;217.65;76.22;;;;;;;-144.73;100.00;54411.81;5041625;28;20029;-71
2023/04/09 04:00:21;;;;;;;212.40;72.25;;;;;;;-144.73;100.00;54440.53;5050589;28;20289;-71
2023/04/09 04:02:46;;;;;;;237.63;74.88;;;;;;;-144.73;100.00;54407.69;5057985;28;20045;-71
2023/04/09 04:05:12;;;;;;;210.43;68.15;;;;;;;-144.73;100.00;54368.69;5051750;28;20561;-72
2023/04/09 04:07:37;;;;;;;212.48;72.07;;;;;;;-144.73;100.00;54473.38;5051289;28;20029;-72
2023/04/09 04:10:06;;;;;;;207.55;71.38;;;;;;;-144.73;100.00;54424.13;5068943;28;20017;-72
2023/04/09 04:12:32;;;;;;;222.80;76.43;;;;;;;-144.73;100.00;54415.91;5053702;28;20016;-72
2023/04/09 04:14:57;;;;;;;242.07;78.45;;;;;;;-144.73;100.00;54383.06;5072736;28;20075;-72
2023/04/09 04:17:22;;;;;;;233.57;78.18;;;;;;;-144.73;100.00;54420.00;5051573;28;20043;-72
2023/04/09 04:19:48;;;;;;;207.13;71.35;;;;;;;-144.73;100.00;54436.44;5051026;28;20028;-72
2023/04/09 04:22:13;;;;;;;203.40;71.93;;;;;;;-144.73;100.00;54424.13;5069699;28;20067;-72
2023/04/09 04:24:38;;;;;;;231.25;76.60;;;;;;;-144.73;100.00;54422.06;5056384;28;20033;-72
2023/04/09 04:27:04;;;;;;;229.35;77.72;;;;;;;-144.73;100.00;54456.97;5069499;28;20036;-72
2023/04/09 04:29:29;;;;;;;243.90;77.82;;;;;;;-144.73;100.00;54428.22;5049832;28;20037;-72
2023/04/09 04:31:54;;;;;;;266.77;80.85;;;;;;;-144.73;100.00;54407.69;5071737;28;20037;-72
2023/04/09 04:34:20;;;;;;;275.55;84.18;;;;;;;-144.73;100.00;54407.69;5053002;28;20101;-72
2023/04/09 04:36:45;;;;;;;272.42;85.05;;;;;;;-144.73;100.00;54440.53;5055535;28;20039;-72
2023/04/09 04:39:10;;;;;;;272.60;84.22;;;;;;;-144.73;100.00;54362.53;5052387;28;20560;-72
2023/04/09 04:41:37;;;;;;;274.23;82.53;;;;;;;-144.73;100.00;54407.69;5067273;28;20097;-72
2023/04/09 04:44:02;;;;;;;246.13;80.35;;;;;;;-144.73;100.00;54438.50;5055137;28;20056;-72
2023/04/09 04:46:27;;;;;;;252.75;83.20;;;;;;;-144.73;100.00;54424.13;5072645;28;20091;-72
2023/04/09 04:48:53;;;;;;;219.25;74.93;;;;;;;-144.73;100.00;54420.00;5053927;28;20419;-72
2023/04/09 04:51:18;;;;;;;204.43;72.50;;;;;;;-144.73;100.00;54420.00;5074452;28;20484;-72
2023/04/09 04:53:43;;;;;;;221.82;76.40;;;;;;;-144.73;100.00;54399.50;5054951;28;20036;-72
2023/04/09 04:56:13;;;;;;;206.55;74.68;;;;;;;-144.73;100.00;54374.84;5054383;28;20093;-72
2023/04/09 04:58:39;;;;;;;225.05;77.57;;;;;;;-144.73;100.00;54389.22;5053995;28;20040;-72
2023/04/09 05:01:04;;;;;;;197.93;71.07;;;;;;;-144.73;100.00;54409.75;5055020;28;20086;-72
2023/04/09 05:03:29;;;;;;;200.98;72.10;;;;;;;-144.73;100.00;54428.22;5054111;28;20083;-72
2023/04/09 05:05:55;;;;;;;219.70;75.70;;;;;;;-144.73;100.00;54440.53;5072636;28;20035;-72
2023/04/09 05:08:20;;;;;;;231.75;74.63;;;;;;;-144.73;100.00;54424.13;5053817;28;20048;-72
2023/04/09 05:10:45;;;;;;;258.58;81.80;;;;;;;-144.73;100.00;54424.13;5061648;28;20445;-72
2023/04/09 05:13:11;;;;;;;246.65;77.93;;;;;;;-144.73;100.00;54407.69;5057376;28;20465;-72
2023/04/09 05:15:40;;;;;;;214.15;75.65;;;;;;;-144.73;100.00;54399.50;5054188;28;20054;-72
2023/04/09 05:18:06;;;;;;;222.77;73.53;;;;;;;-144.73;100.00;54372.81;5053825;28;20043;-72
2023/04/09 05:20:32;;;;;;;218.23;72.60;;;;;;;-144.73;100.00;54389.22;5054330;28;20060;-71
2023/04/09 05:22:58;;;;;;;215.70;71.25;;;;;;;-144.73;100.00;54399.50;5054176;28;20047;-72
2023/04/09 05:25:23;;;;;;;187.55;67.53;;;;;;;-144.73;100.00;54440.53;5072313;28;20107;-72
2023/04/09 05:27:48;;;;;;;230.80;78.60;;;;;;;-144.73;100.00;54407.69;5053633;28;20047;-73
2023/04/09 05:30:14;;;;;;;210.65;72.43;;;;;;;-144.73;100.00;54364.59;5054027;28;20029;-72
2023/04/09 05:32:39;;;;;;;219.13;74.53;;;;;;;-144.73;100.00;54407.69;5048447;28;20043;-72
2023/04/09 05:35:05;;;;;;;200.75;71.50;;;;;;;-144.73;100.00;54448.75;5072346;28;20064;-71
2023/04/09 05:37:30;;;;;;;200.52;69.50;;;;;;;-144.73;100.00;54383.06;5053826;28;20040;-72
2023/04/09 05:39:56;;;;;;;188.25;70.68;;;;;;;-144.73;100.00;54399.50;5053308;28;20032;-71
2023/04/09 05:42:21;;;;;;;184.05;65.63;;;;;;;-144.73;100.00;54385.13;5055115;28;20020;-72
2023/04/09 05:44:46;;;;;;;204.68;71.15;;;;;;;-144.73;100.00;54430.28;5058453;28;20071;-72
2023/04/09 05:47:12;;;;;;;198.10;68.90;;;;;;;-144.73;100.00;54415.91;5049467;28;20020;-72
2023/04/09 05:49:37;;;;;;;208.68;71.25;;;;;;;-144.73;100.00;54391.28;5055486;28;20060;-72
2023/04/09 05:52:02;;;;;;;225.60;77.85;;;;;;;-144.73;100.00;54434.38;5071071;28;20020;-72
2023/04/09 05:54:28;;;;;;;216.32;71.07;;;;;;;-144.73;100.00;54448.75;5052209;28;20124;-72
2023/04/09 05:56:53;;;;;;;218.90;73.18;;;;;;;-144.73;100.00;54391.28;5055131;28;20036;-72
2023/04/09 05:59:18;;;;;;;200.82;68.57;;;;;;;-144.73;100.00;54440.53;5052434;28;20411;-72
2023/04/09 06:01:44;;;;;;;219.18;75.30;;;;;;;-144.73;100.00;54432.31;5073142;28;20060;-72
2023/04/09 06:04:09;;;;;;;220.35;73.63;;;;;;;-144.73;100.00;54407.69;5053859;28;20055;-72
2023/04/09 06:06:37;;;;;;;219.48;73.32;;;;;;;-144.73;100.00;54440.53;5053653;28;20028;-72
2023/04/09 06:09:03;;;;;;;221.45;75.85;;;;;;;-144.73;100.00;54424.13;5052374;28;20040;-72
2023/04/09 06:11:29;;;;;;;254.15;80.70;;;;;;;-144.73;100.00;54424.13;5053973;28;20368;-71
2023/04/09 06:13:54;;;;;;;270.10;82.72;;;;;;;-144.73;100.00;54407.69;5068323;28;20090;-72
2023/04/09 06:16:19;;;;;;;263.77;80.63;;;;;;;-144.73;100.00;54456.97;5053620;28;20064;-72
2023/04/09 06:18:45;;;;;;;244.88;75.82;;;;;;;-144.73;100.00;54420.00;5070371;28;20048;-72
2023/04/09 06:21:12;;;;;;;264.05;81.57;;;;;;;-144.73;100.00;54417.97;5071905;28;20085;-72
2023/04/09 06:23:38;;;;;;;258.98;79.50;;;;;;;-144.73;100.00;54430.28;5069690;28;20410;-72
2023/04/09 06:26:04;;;;;;;267.15;82.65;;;;;;;-144.73;100.00;54450.81;5070501;28;20049;-71
2023/04/09 06:28:30;;;;;;;290.15;87.05;;;;;;;-144.73;100.00;54428.22;5053315;28;20115;-72
2023/04/09 06:30:56;;;;;;;268.77;81.90;;;;;;;-144.73;100.00;54417.97;5055014;28;20162;-70
2023/04/09 06:33:21;;;;;;;265.38;82.07;;;;;;;-144.73;100.00;54448.75;5071511;28;20125;-70
2023/04/09 06:35:47;;;;;;;278.20;85.35;;;;;;;-144.73;100.00;54448.75;5054651;28;20028;-70
2023/04/09 06:38:14;;;;;;;241.63;76.03;;;;;;;-144.73;100.00;54442.59;5071584;28;20036;-70
2023/04/09 06:40:40;;;;;;;243.68;80.47;;;;;;;-144.73;100.00;54424.13;5070480;28;20032;-70
2023/04/09 06:43:05;;;;;;;233.02;77.15;;;;;;;-144.73;100.00;54409.75;5057322;28;20044;-69
2023/04/09 06:45:32;;;;;;;241.82;79.43;;;;;;;-144.73;100.00;54415.91;5055528;28;20028;-70
2023/04/09 06:47:58;;;;;;;226.70;76.97;;;;;;;-144.73;100.00;54438.50;5071680;28;20033;-70
2023/04/09 06:50:24;;;;;;;238.90;78.47;;;;;;;-144.73;100.00;54395.38;5055211;28;20404;-70
2023/04/09 06:52:50;;;;;;;243.52;79.78;;;;;;;-144.73;100.00;54407.69;5042039;28;20045;-70
2023/04/09 06:55:16;;;;;;;233.82;77.38;;;;;;;-144.73;100.00;54415.91;5056092;28;20036;-70
2023/04/09 06:57:41;;;;;;;222.68;74.38;;;;;;;-144.73;100.00;54407.69;5071730;28;20033;-69
2023/04/09 07:00:08;;;;;;;209.60;73.13;;;;;;;-144.73;100.00;54407.69;5071759;28;20032;-69
2023/04/09 07:02:34;;;;;;;199.32;71.10;;;;;;;-144.73;100.00;54436.44;5070874;28;20020;-69
2023/04/09 07:04:59;;;;;;;198.48;68.75;;;;;;;-144.73;100.00;54436.44;5054222;28;20028;-69
2023/04/09 07:07:25;;;;;;;213.15;73.65;;;;;;;-144.73;100.00;54446.69;5052798;28;20039;-73
2023/04/09 07:09:52;;;;;;;182.38;63.90;;;;;;;-144.73;100.00;54432.31;5072220;28;20025;-73
2023/04/09 07:12:30;;;;;;;174.30;63.22;;;;;;;-144.73;100.00;54444.66;5052612;28;20021;-72
2023/04/09 07:15:03;;;;;;;163.93;62.72;;;;;;;-144.73;100.00;54432.31;5053022;28;20072;-73
2023/04/09 07:17:30;;;;;;;197.27;69.38;;;;;;;-144.73;100.00;54428.22;5071001;28;20025;-73
2023/04/09 07:19:55;;;;;;;164.73;60.80;;;;;;;-144.73;100.00;54407.69;5056672;28;20036;-72
2023/04/09 07:22:21;;;;;;;177.82;66.30;;;;;;;-144.73;100.00;54432.31;5055497;28;20028;-73
2023/04/09 07:24:52;;;;;;;157.38;62.33;;;;;;;-144.73;100.00;54428.22;5043945;28;20039;-73
2023/04/09 07:27:19;;;;;;;179.25;67.05;;;;;;;-144.73;100.00;54428.22;5039890;28;20100;-73
2023/04/09 07:29:44;;;;;;;175.02;66.05;;;;;;;-144.73;100.00;54452.84;5039924;28;20028;-73
2023/04/09 07:32:10;;;;;;;186.13;68.80;;;;;;;-144.73;100.00;54436.44;5064667;28;20084;-73
2023/04/09 07:34:36;;;;;;;176.02;63.45;;;;;;;-144.73;100.00;54411.81;5041344;28;20040;-71
2023/04/09 07:37:01;;;;;;;182.63;68.10;;;;;;;-144.73;100.00;54395.38;5037657;28;20036;-72
2023/04/09 07:39:27;;;;;;;171.20;61.92;;;;;;;-144.73;100.00;54424.13;5041275;28;20064;-72
2023/04/09 07:41:56;;;;;;;178.85;64.05;;;;;;;-144.73;100.00;54432.31;5060908;28;20047;-71
2023/04/09 07:44:22;;;;;;;178.70;64.78;;;;;;;-144.73;100.00;54424.13;5043200;28;20047;-72
2023/04/09 07:46:47;;;;;;;171.30;63.08;;;;;;;-144.73;100.00;54473.38;5042277;28;20021;-72
2023/04/09 07:49:13;;;;;;;156.05;60.08;;;;;;;-144.73;100.00;54432.31;5030276;28;20032;-73
2023/04/09 07:51:38;;;;;;;151.13;58.95;;;;;;;-144.73;100.00;54440.53;5038693;28;20021;-74
2023/04/09 07:54:04;;;;;;;156.88;61.33;;;;;;;-144.73;100.00;54415.91;5034935;28;20045;-74
2023/04/09 07:56:29;;;;;;;150.20;59.53;;;;;;;-144.73;100.00;54424.13;5039739;28;20035;-73
2023/04/09 07:58:55;;;;;;;151.07;58.60;;;;;;;-144.73;100.00;54415.91;5053602;28;20052;-74
2023/04/09 08:01:23;;;;;;;128.40;53.15;;;;;;;-144.73;100.00;54456.97;5035441;28;20099;-73
2023/04/09 08:03:49;;;;;;;150.52;56.53;;;;;;;-144.73;100.00;54424.13;5036083;28;20407;-74
2023/04/09 08:06:15;;;;;;;139.15;58.40;;;;;;;-144.73;100.00;54452.84;5036137;28;20024;-74
2023/04/09 08:08:41;;;;;;;152.82;59.85;;;;;;;-144.73;100.00;54461.06;5055531;28;20035;-74
2023/04/09 08:11:07;;;;;;;138.73;56.85;;;;;;;-144.73;100.00;54428.22;5058130;28;20028;-71
2023/04/09 08:13:32;;;;;;;133.45;56.17;;;;;;;-144.73;100.00;54391.28;5060714;28;20085;-73
2023/04/09 08:16:01;;;;;;;122.68;51.45;;;;;;;-144.73;99.20;54424.13;5041270;28;20024;-73
2023/04/09 08:18:27;;;;;;;117.30;49.45;;;;;;;-144.73;98.83;54420.00;5039563;28;20032;-73
2023/04/09 08:20:52;;;;;;;108.32;45.85;;;;;;;-144.73;98.72;54465.16;5043034;28;20081;-73
2023/04/09 08:23:17;;;;;;;106.45;45.38;;;;;;;-144.73;98.13;54432.31;5036598;28;20038;-73
2023/04/09 08:25:43;;;;;;;109.55;49.58;;;;;;;-144.73;97.25;54407.69;5036836;28;20079;-73
2023/04/09 08:28:08;;;;;;;105.43;47.22;;;;;;;-144.73;96.23;54448.75;5039823;28;20113;-73
2023/04/09 08:30:34;;;;;;;90.88;44.72;;;;;;;-144.73;96.22;54465.16;5035878;28;20115;-73
2023/04/09 08:33:02;;;;;;;92.68;44.35;;;;;;;-144.73;96.68;54383.06;5054760;28;20097;-73
2023/04/09 08:35:31;;;;;;;90.20;41.10;;;;;;;-144.73;96.10;54407.69;5037615;28;20031;-72
2023/04/09 08:37:57;;;;;;;87.40;43.30;;;;;;;-144.73;94.63;54424.13;5037256;28;20051;-73
2023/04/09 08:40:22;;;;;;;79.72;39.67;;;;;;;-144.73;94.63;54436.44;5060033;28;20032;-73
2023/04/09 08:42:54;;;;;;;89.47;41.40;;;;;;;-144.73;94.13;54407.69;5058807;28;20044;-73
2023/04/09 08:45:20;;;;;;;;;;;;;;;-144.73;94.54;54391.28;5040803;28;20028;-73
2023/04/09 08:47:48;;;;;;;90.68;41.00;;;;;;;-144.73;94.14;54448.75;5059185;28;19966;-73
2023/04/09 08:50:13;;;;;;;85.35;38.55;;;;;;;-144.73;94.02;54417.97;5043194;28;20043;-73
2023/04/09 08:52:39;;;;;;;77.00;34.88;;;;;;;-144.73;93.50;54440.53;5038621;28;20045;-73
2023/04/09 08:55:05;;;;;;;79.40;36.38;;;;;;;-144.73;94.27;54432.31;5039591;28;20021;-73
2023/04/09 08:57:36;;;;;;;63.40;33.10;;;;;;;-144.73;92.60;54381.00;5039700;28;20031;-73
2023/04/09 09:00:02;;;;;;;63.03;31.50;;;;;;;-144.73;92.35;54456.97;5037616;28;20028;-73
2023/04/09 09:02:27;;;;;;;68.45;34.75;;;;;;;-144.73;92.97;54415.91;5040913;28;20017;-72
2023/04/09 09:04:58;;;;;;;64.82;31.85;;;;;;;-144.73;93.82;54395.38;5043397;28;20013;-73
2023/04/09 09:07:23;;;;;;;65.05;32.90;;;;;;;-144.73;93.64;54473.38;5042950;28;20032;-73
2023/04/09 09:10:07;;;;;;;63.15;31.17;;;;;;;-144.73;94.17;54469.28;5046448;28;20023;-72
2023/04/09 09:12:40;;;;;;;67.57;32.30;;;;;;;-144.73;93.16;54411.81;5035653;28;20028;-72
2023/04/09 09:15:28;;;;;;;64.93;32.85;;;;;;;-144.73;92.04;54436.44;5047249;28;20027;-72
2023/04/09 09:17:55;;;;;;;64.32;30.45;;;;;;;-144.73;91.22;54461.06;5039612;28;20185;-72
2023/04/09 09:20:22;;;;;;;65.63;32.33;;;;;;;-144.73;91.60;54407.69;5058806;28;20017;-72
2023/04/09 09:22:52;;;;;;;61.70;32.83;;;;;;;-144.73;92.18;54440.53;5043415;28;20041;-72
2023/04/09 09:25:22;;;;;;;64.43;31.30;;;;;;;-144.73;92.64;54469.28;5048272;28;20052;-73
2023/04/09 09:27:47;;;;;;;58.47;30.23;;;;;;;-144.73;90.99;54428.22;5037714;28;20033;-73
2023/04/09 09:30:25;;;;;;;62.08;31.17;;;;;;;-144.73;91.25;54452.84;5050676;28;20505;-73
2023/04/09 09:32:52;;;;;;;59.67;28.73;;;;;;;-144.73;90.35;54420.00;5065898;28;20036;-73
2023/04/09 09:35:17;;;;;;;49.47;27.70;;;;;;;-144.73;90.55;54456.97;5041112;28;20062;-73
2023/04/09 09:37:42;;;;;;;53.70;29.60;;;;;;;-144.73;91.19;54428.22;5044992;28;20630;-73
2023/04/09 09:40:08;;;;;;;49.45;27.38;;;;;;;-144.73;90.77;54440.53;5044467;28;20020;-73
2023/04/09 09:42:34;;;;;;;59.35;29.35;;;;;;;-144.73;89.83;54424.13;5045597;28;20024;-73
2023/04/09 09:45:00;;;;;;;56.10;27.65;;;;;;;-144.73;90.19;54448.75;5041548;28;20028;-73
2023/04/09 09:47:28;;;;;;;51.08;27.98;;;;;;;-144.73;90.22;54440.53;5046120;28;20028;-73
2023/04/09 09:49:54;;;;;;;52.03;28.33;;;;;;;-144.73;90.04;54415.91;5043428;28;20039;-74
2023/04/09 09:52:27;;;;;;;50.85;28.05;;;;;;;-144.73;89.95;54446.69;5061563;28;20017;-73
2023/04/09 09:54:54;;;;;;;52.50;28.65;;;;;;;-144.73;89.70;54434.38;5059978;28;20021;-72
2023/04/09 09:57:22;;;;;;;51.50;27.27;;;;;;;-144.73;88.19;54432.31;5062236;28;20016;-71
2023/04/09 10:00:14;;;;;;;58.40;26.65;;;;;;;-144.73;86.63;54436.44;5061774;28;20020;-72
2023/04/09 10:02:52;;;;;;;51.35;27.98;;;;;;;-144.73;86.29;54415.91;5056570;28;20032;-72
2023/04/09 10:05:18;;;;;;;50.80;27.45;;;;;;;-144.73;86.55;54432.31;5057667;28;20058;-72
2023/04/09 10:07:45;;;;;;;49.85;26.73;;;;;;;-144.73;86.25;54436.44;5047170;28;20130;-72
2023/04/09 10:10:10;;;;;;;54.95;29.15;;;;;;;-144.73;87.53;54456.97;5045454;28;20048;-72
2023/04/09 10:12:36;;;;;;;50.72;24.90;;;;;;;-144.73;86.61;54440.53;5043058;28;20529;-72
2023/04/09 10:15:04;;;;;;;48.78;27.58;;;;;;;-144.73;86.61;54420.00;5043687;28;20020;-73
2023/04/09 10:17:31;;;;;;;47.75;26.63;;;;;;;-144.73;86.46;54420.00;5035542;28;20024;-72
2023/04/09 10:20:14;;;;;;;50.47;27.95;;;;;;;-144.73;85.54;54391.28;5056653;28;20104;-72
2023/04/09 10:22:44;;;;;;;53.65;28.63;;;;;;;-144.73;86.76;54436.44;5063961;28;20036;-72
2023/04/09 10:25:10;;;;;;;48.63;27.10;;;;;;;-144.73;86.65;54426.16;5037350;28;20024;-72
2023/04/09 10:27:35;;;;;;;49.63;27.25;;;;;;;-144.73;87.89;54424.13;5043388;28;20036;-72
2023/04/09 10:30:01;;;;;;;47.35;26.58;;;;;;;-144.73;87.15;54448.75;5044127;28;20020;-73
2023/04/09 10:32:26;;;;;;;48.17;26.15;;;;;;;-144.73;86.71;54420.00;5040430;28;20028;-72
2023/04/09 10:34:56;;;;;;;47.35;25.85;;;;;;;-144.73;85.88;54448.75;5039720;28;20025;-73
2023/04/09 10:37:24;;;;;;;45.90;26.23;;;;;;;-144.73;85.87;54420.00;5041153;28;20028;-72
2023/04/09 10:39:51;;;;;;;50.75;27.02;;;;;;;-144.73;85.55;54452.84;5061892;28;20044;-73
2023/04/09 10:42:31;;;;;;;48.00;25.23;;;;;;;-144.73;84.28;54438.50;5044602;28;20013;-73
2023/04/09 10:45:13;;;;;;;45.08;23.52;;;;;;;-144.73;83.78;54459.00;5039326;28;20135;-73
2023/04/09 10:47:41;;;;;;;42.50;25.08;;;;;;;-144.73;83.33;54417.97;5057605;28;20115;-73
2023/04/09 10:50:26;;;;;;;45.65;23.38;;;;;;;-144.73;82.96;54420.00;5043350;28;20025;-74